Time;durP1;ratioP1;P1;durP2;ratioP2;P2;SDS_P1;SDS_P2;PMS_P1;PMS_P2;Temp;Humidity;BMP_temperature;BMP_pressure;BME280_temperature;BME280_humidity;BME280_pressure;Samples;Min_cycle;Max_cycle;Signal;HPM_P1;HPM_P2
2023/07/20 00:00:08;;;;;;;0.80;0.68;;;22.50;62.70;;;;;;6292625;28;20366;-69
2023/07/20 00:03:16;;;;;;;1.58;0.60;;;22.50;62.70;;;;;;6292781;28;20035;-69
2023/07/20 00:06:17;;;;;;;0.65;0.65;;;22.50;62.70;;;;;;6291294;28;20028;-69
2023/07/20 00:09:17;;;;;;;0.70;0.55;;;22.50;62.70;;;;;;6292795;28;20024;-70
2023/07/20 00:12:18;;;;;;;0.40;0.40;;;22.50;62.70;;;;;;6292413;28;20043;-69
2023/07/20 00:15:18;;;;;;;0.90;0.60;;;22.50;62.70;;;;;;6292315;28;20025;-70
2023/07/20 00:18:21;;;;;;;0.70;0.65;;;22.50;62.70;;;;;;6291336;28;20024;-70
2023/07/20 00:21:21;;;;;;;0.47;0.47;;;22.50;62.70;;;;;;6290943;28;20032;-69
2023/07/20 00:24:22;;;;;;;0.70;0.65;;;22.50;62.70;;;;;;6292496;28;20064;-69
2023/07/20 00:27:23;;;;;;;0.73;0.60;;;22.50;62.70;;;;;;6292060;28;20472;-69
2023/07/20 00:30:24;;;;;;;1.20;0.77;;;22.50;62.70;;;;;;6291267;28;20070;-70
2023/07/20 00:33:24;;;;;;;1.10;0.63;;;22.50;62.70;;;;;;6292025;28;20052;-69
2023/07/20 00:36:25;;;;;;;0.60;0.60;;;22.50;62.70;;;;;;6290981;28;20027;-70
2023/07/20 00:39:26;;;;;;;0.77;0.60;;;22.50;62.80;;;;;;6290885;28;20056;-70
2023/07/20 00:42:26;;;;;;;0.55;0.50;;;22.50;63.70;;;;;;6296685;28;20115;-70
2023/07/20 00:45:28;;;;;;;0.45;0.35;;;22.50;62.80;;;;;;6295125;28;20051;-69
2023/07/20 00:48:30;;;;;;;0.60;0.60;;;22.50;62.80;;;;;;6296532;28;20020;-70
2023/07/20 00:51:31;;;;;;;0.60;0.60;;;22.50;62.80;;;;;;6296565;28;20559;-69
2023/07/20 00:54:32;;;;;;;0.80;0.47;;;22.50;62.70;;;;;;6294673;28;20032;-69
2023/07/20 00:57:33;;;;;;;1.00;0.77;;;22.50;62.80;;;;;;6294927;28;20044;-69
2023/07/20 01:00:33;;;;;;;0.40;0.40;;;22.50;62.80;;;;;;6296272;28;20031;-69
2023/07/20 01:03:34;;;;;;;0.55;0.55;;;22.50;62.80;;;;;;6294864;28;20488;-69
2023/07/20 01:07:02;;;;;;;0.65;0.60;;;22.50;62.70;;;;;;6294825;28;20082;-69
2023/07/20 01:10:36;;;;;;;0.60;0.50;;;22.50;62.80;;;;;;6294059;28;20075;-70
2023/07/20 01:13:38;;;;;;;0.60;0.60;;;22.50;62.90;;;;;;6294155;28;20063;-69
2023/07/20 01:16:39;;;;;;;0.60;0.50;;;22.50;62.90;;;;;;6296084;28;20020;-70
2023/07/20 01:19:40;;;;;;;0.70;0.60;;;22.50;62.80;;;;;;6296042;28;20448;-70
2023/07/20 01:22:44;;;;;;;0.68;0.52;;;22.50;62.80;;;;;;6295923;28;20082;-69
2023/07/20 01:26:12;;;;;;;0.40;0.40;;;22.50;62.90;;;;;;6294350;28;20480;-69
2023/07/20 01:29:40;;;;;;;0.88;0.60;;;22.50;62.90;;;;;;6294316;28;20031;-69
2023/07/20 01:32:44;;;;;;;0.70;0.57;;;22.50;62.90;;;;;;6295415;28;20052;-69
2023/07/20 01:35:53;;;;;;;0.75;0.63;;;22.50;62.90;;;;;;6295408;28;20032;-69
2023/07/20 01:38:54;;;;;;;0.47;0.40;;;22.50;62.90;;;;;;6295613;28;20036;-69
2023/07/20 01:41:55;;;;;;;0.57;0.57;;;22.50;62.90;;;;;;6295116;28;20032;-69
2023/07/20 01:44:56;;;;;;;0.80;0.70;;;22.50;62.80;;;;;;6295144;28;20092;-70
2023/07/20 01:47:57;;;;;;;0.60;0.60;;;22.50;62.90;;;;;;6295061;28;20424;-69
2023/07/20 01:50:58;;;;;;;0.68;0.60;;;22.50;62.90;;;;;;6295143;28;20040;-69
2023/07/20 01:53:59;;;;;;;0.70;0.57;;;22.50;62.90;;;;;;6293336;28;20052;-70
2023/07/20 01:57:00;;;;;;;0.50;0.50;;;22.50;62.90;;;;;;6293742;28;20032;-70
2023/07/20 02:00:01;;;;;;;0.45;0.45;;;22.50;62.90;;;;;;6293553;28;20020;-69
2023/07/20 02:03:02;;;;;;;0.60;0.47;;;22.50;62.90;;;;;;6293532;28;20028;-69
2023/07/20 02:06:02;;;;;;;0.70;0.57;;;22.50;62.90;;;;;;6294643;28;20111;-69
2023/07/20 02:09:03;;;;;;;0.75;0.68;;;22.50;62.90;;;;;;6294659;28;20032;-70
2023/07/20 02:12:04;;;;;;;0.73;0.50;;;22.50;62.90;;;;;;6294488;28;20241;-70
2023/07/20 02:15:05;;;;;;;0.50;0.50;;;22.50;62.90;;;;;;6294442;28;20021;-69
2023/07/20 02:18:06;;;;;;;1.35;0.60;;;22.50;62.90;;;;;;6294110;28;20090;-70
2023/07/20 02:21:07;;;;;;;0.50;0.50;;;22.50;62.90;;;;;;6294957;28;20020;-69
2023/07/20 02:24:07;;;;;;;0.50;0.50;;;22.50;62.90;;;;;;6293861;28;20393;-69
2023/07/20 02:27:08;;;;;;;0.55;0.50;;;22.50;62.90;;;;;;6292740;28;20028;-70
2023/07/20 02:30:09;;;;;;;0.55;0.55;;;22.50;62.90;;;;;;6293807;28;20067;-70
2023/07/20 02:33:10;;;;;;;0.63;0.55;;;22.50;62.90;;;;;;6292891;28;20052;-70
2023/07/20 02:36:10;;;;;;;0.95;0.60;;;22.50;62.90;;;;;;6292424;28;20021;-69
2023/07/20 02:39:11;;;;;;;0.63;0.60;;;22.50;62.90;;;;;;6293653;28;20021;-69
2023/07/20 02:42:12;;;;;;;0.60;0.60;;;22.50;62.90;;;;;;6292581;28;20119;-70
2023/07/20 02:45:13;;;;;;;0.57;0.40;;;22.50;62.90;;;;;;6292235;28;20024;-70
2023/07/20 02:48:14;;;;;;;0.50;0.50;;;22.50;62.90;;;;;;6293604;28;20100;-70
2023/07/20 02:51:15;;;;;;;0.80;0.50;;;22.50;63.00;;;;;;6292348;28;20542;-69
2023/07/20 02:54:15;;;;;;;0.52;0.52;;;22.50;62.90;;;;;;6293653;28;20017;-70
2023/07/20 02:57:16;;;;;;;0.80;0.60;;;22.50;62.90;;;;;;6292336;28;20107;-69
2023/07/20 03:00:19;;;;;;;0.45;0.45;;;22.50;63.00;;;;;;6293576;28;20016;-70
2023/07/20 03:03:20;;;;;;;1.02;0.60;;;22.50;63.00;;;;;;6293502;28;20032;-69
2023/07/20 03:06:20;;;;;;;0.60;0.50;;;22.50;62.90;;;;;;6292944;28;20016;-70
2023/07/20 03:09:22;;;;;;;1.27;0.47;;;22.50;63.00;;;;;;6293361;28;20043;-69
2023/07/20 03:12:22;;;;;;;0.90;0.65;;;22.50;63.00;;;;;;6291885;28;20039;-70
2023/07/20 03:15:23;;;;;;;0.50;0.40;;;22.50;63.00;;;;;;6292934;28;20370;-69
2023/07/20 03:18:24;;;;;;;0.95;0.60;;;22.50;63.00;;;;;;6291656;28;20025;-70
2023/07/20 03:21:25;;;;;;;0.43;0.43;;;22.50;63.00;;;;;;6291945;28;20047;-70
2023/07/20 03:24:25;;;;;;;0.70;0.60;;;22.50;63.00;;;;;;6291941;28;20064;-70
2023/07/20 03:27:26;;;;;;;0.60;0.60;;;22.50;63.00;;;;;;6293282;28;20564;-69
2023/07/20 03:30:26;;;;;;;0.38;0.38;;;22.50;63.00;;;;;;6292934;28;20121;-70
2023/07/20 03:33:29;;;;;;;0.63;0.50;;;22.50;63.00;;;;;;6291562;28;20412;-69
2023/07/20 03:36:31;;;;;;;0.73;0.57;;;22.50;63.00;;;;;;6293059;28;20066;-70
2023/07/20 03:39:32;;;;;;;0.47;0.47;;;22.50;63.00;;;;;;6291745;28;20112;-69
2023/07/20 03:42:33;;;;;;;0.57;0.52;;;22.50;63.00;;;;;;6293057;28;20021;-69
2023/07/20 03:45:33;;;;;;;0.55;0.47;;;22.50;63.00;;;;;;6292852;28;20058;-69
2023/07/20 03:48:34;;;;;;;0.82;0.63;;;22.50;63.00;;;;;;6292635;28;20028;-70
2023/07/20 03:51:35;;;;;;;0.55;0.47;;;22.50;63.00;;;;;;6291194;28;20020;-69
2023/07/20 03:54:36;;;;;;;0.63;0.52;;;22.50;63.00;;;;;;6293007;28;20027;-70
2023/07/20 03:57:37;;;;;;;0.40;0.40;;;22.50;63.00;;;;;;6291253;28;20116;-70
2023/07/20 04:00:38;;;;;;;0.60;0.55;;;22.50;63.00;;;;;;6292926;28;20025;-69
2023/07/20 04:03:38;;;;;;;0.60;0.57;;;22.50;63.00;;;;;;6292494;28;20032;-69
2023/07/20 04:06:39;;;;;;;0.50;0.50;;;22.50;63.00;;;;;;6292706;28;20032;-70
2023/07/20 04:09:40;;;;;;;0.50;0.50;;;22.50;63.00;;;;;;6291833;28;20539;-69
2023/07/20 04:12:41;;;;;;;0.43;0.43;;;22.50;63.00;;;;;;6292623;28;20016;-70
2023/07/20 04:15:42;;;;;;;0.50;0.47;;;22.50;63.00;;;;;;6293033;28;20358;-69
2023/07/20 04:18:43;;;;;;;0.52;0.52;;;22.50;63.00;;;;;;6297390;28;20024;-70
2023/07/20 04:21:44;;;;;;;0.75;0.60;;;22.50;63.00;;;;;;6295677;28;20013;-70
2023/07/20 04:24:44;;;;;;;0.65;0.60;;;22.50;63.00;;;;;;6297109;28;20036;-69
2023/07/20 04:27:45;;;;;;;0.40;0.40;;;22.50;63.00;;;;;;6295403;28;20083;-70
2023/07/20 04:30:51;;;;;;;0.50;0.50;;;22.50;63.00;;;;;;6296640;28;20020;-70
2023/07/20 04:33:51;;;;;;;0.50;0.50;;;22.50;63.00;;;;;;6296714;28;20049;-69
2023/07/20 04:36:53;;;;;;;0.60;0.60;;;22.50;63.90;;;;;;6295521;28;20032;-69
2023/07/20 04:39:54;;;;;;;0.45;0.45;;;22.50;63.00;;;;;;6295149;28;20150;-69
2023/07/20 04:42:54;;;;;;;2.83;0.52;;;22.50;63.00;;;;;;6296849;28;20028;-69
2023/07/20 04:45:55;;;;;;;0.70;0.60;;;22.50;63.00;;;;;;6295119;28;20504;-70
2023/07/20 04:48:56;;;;;;;0.57;0.57;;;22.50;63.00;;;;;;6297254;28;20032;-69
2023/07/20 04:51:56;;;;;;;0.68;0.50;;;22.50;63.00;;;;;;6297034;28;20020;-69
2023/07/20 04:54:57;;;;;;;0.88;0.57;;;22.50;63.00;;;;;;6296632;28;20405;-69
2023/07/20 04:57:58;;;;;;;0.32;0.32;;;22.50;63.00;;;;;;6295736;28;20017;-69
2023/07/20 05:00:58;;;;;;;0.50;0.50;;;22.50;63.00;;;;;;6294694;28;20028;-70
2023/07/20 05:03:59;;;;;;;0.50;0.50;;;22.50;63.00;;;;;;6271188;28;20064;-69
2023/07/20 05:07:00;;;;;;;0.63;0.63;;;22.50;63.00;;;;;;6280619;28;20039;-69
2023/07/20 05:10:01;;;;;;;0.60;0.60;;;22.50;63.10;;;;;;6294560;28;20024;-70
2023/07/20 05:13:01;;;;;;;0.57;0.50;;;22.50;63.10;;;;;;6294511;28;20140;-70
2023/07/20 05:16:02;;;;;;;0.60;0.50;;;22.50;63.00;;;;;;6292156;28;20036;-69
2023/07/20 05:19:03;;;;;;;0.50;0.43;;;22.50;63.00;;;;;;6297191;28;20524;-72
2023/07/20 05:22:05;;;;;;;0.40;0.40;;;22.50;63.00;;;;;;6289056;28;20115;-70
2023/07/20 05:25:08;;;;;;;0.75;0.68;;;22.50;63.00;;;;;;6297201;28;20097;-70
2023/07/20 05:28:09;;;;;;;0.80;0.60;;;22.50;63.10;;;;;;6296969;28;20033;-67
2023/07/20 05:31:09;;;;;;;0.40;0.40;;;22.50;63.00;;;;;;6273525;28;20118;-66
2023/07/20 05:34:11;;;;;;;0.50;0.50;;;22.50;63.00;;;;;;6292308;28;20481;-67
2023/07/20 05:37:12;;;;;;;0.57;0.50;;;22.50;63.00;;;;;;6275266;28;20021;-67
2023/07/20 05:40:18;;;;;;;0.57;0.40;;;22.50;63.00;;;;;;6292426;28;20017;-67
2023/07/20 05:43:25;;;;;;;0.50;0.50;;;22.50;63.10;;;;;;6297136;28;20025;-66
2023/07/20 05:46:25;;;;;;;0.40;0.32;;;22.50;63.00;;;;;;6296435;28;20028;-67
2023/07/20 05:49:26;;;;;;;0.50;0.50;;;22.50;63.00;;;;;;6296300;28;20028;-67
2023/07/20 05:52:27;;;;;;;0.50;0.50;;;22.50;63.00;;;;;;6295647;28;20090;-67
2023/07/20 05:55:28;;;;;;;0.73;0.60;;;22.50;63.00;;;;;;6294942;28;20021;-68
2023/07/20 05:58:29;;;;;;;0.57;0.55;;;22.50;63.00;;;;;;6292571;28;20016;-68
2023/07/20 06:01:30;;;;;;;0.70;0.60;;;22.50;63.00;;;;;;6293316;28;20040;-68
2023/07/20 06:04:30;;;;;;;0.50;0.50;;;22.50;63.00;;;;;;6297470;28;20751;-68
2023/07/20 06:07:31;;;;;;;0.52;0.50;;;22.50;63.00;;;;;;6295001;28;20117;-68
2023/07/20 06:10:32;;;;;;;0.60;0.60;;;22.50;62.90;;;;;;6276256;28;20089;-68
2023/07/20 06:13:34;;;;;;;0.90;0.60;;;22.50;63.00;;;;;;6295765;28;20028;-68
2023/07/20 06:16:36;;;;;;;0.50;0.50;;;22.50;63.00;;;;;;6285633;28;20024;-67
2023/07/20 06:19:37;;;;;;;0.70;0.55;;;22.50;62.90;;;;;;6296824;28;20078;-66
2023/07/20 06:22:38;;;;;;;0.57;0.57;;;22.50;62.90;;;;;;6296943;28;20504;-67
2023/07/20 06:25:40;;;;;;;0.40;0.40;;;22.50;62.90;;;;;;6296760;28;20025;-67
2023/07/20 06:28:40;;;;;;;1.20;0.60;;;22.50;62.90;;;;;;6296042;28;20021;-67
2023/07/20 06:31:41;;;;;;;1.05;0.60;;;22.50;62.80;;;;;;6296543;28;20025;-67
2023/07/20 06:34:42;;;;;;;0.85;0.60;;;22.50;62.70;;;;;;6296895;28;20045;-67
2023/07/20 06:37:43;;;;;;;0.45;0.45;;;22.50;62.70;;;;;;6296679;28;20023;-67
2023/07/20 06:40:46;;;;;;;0.77;0.45;;;22.50;62.70;;;;;;6295657;28;20017;-66
2023/07/20 06:43:47;;;;;;;1.15;0.80;;;22.50;62.50;;;;;;6296965;28;20020;-66
2023/07/20 06:46:48;;;;;;;4.13;0.75;;;22.50;62.60;;;;;;6296486;28;20032;-66
2023/07/20 06:49:48;;;;;;;1.33;0.65;;;22.50;62.60;;;;;;6295119;28;20025;-67
2023/07/20 06:52:49;;;;;;;1.25;0.65;;;22.50;62.50;;;;;;6289317;28;20377;-66
2023/07/20 06:55:50;;;;;;;1.85;0.65;;;22.50;62.40;;;;;;6296214;28;20107;-67
2023/07/20 06:58:50;;;;;;;0.82;0.60;;;22.50;62.30;;;;;;6296332;28;20539;-67
2023/07/20 07:01:51;;;;;;;1.38;0.77;;;22.50;62.20;;;;;;6296586;28;20016;-68
2023/07/20 07:04:52;;;;;;;3.20;1.05;;;22.50;62.30;;;;;;6295862;28;20027;-68
2023/07/20 07:07:53;;;;;;;2.22;1.00;;;22.50;62.20;;;;;;6296226;28;20032;-68
2023/07/20 07:10:54;;;;;;;3.30;0.82;;;22.50;62.30;;;;;;6280844;28;20033;-74
2023/07/20 07:13:55;;;;;;;1.55;0.60;;;22.50;62.30;;;;;;6286051;28;20099;-76
2023/07/20 07:16:55;;;;;;;0.85;0.80;;;22.50;62.50;;;;;;6293676;28;20028;-75
2023/07/20 07:19:56;;;;;;;1.98;0.82;;;22.50;62.30;;;;;;6293915;28;20020;-76
2023/07/20 07:22:58;;;;;;;0.70;0.60;;;22.50;62.30;;;;;;6293553;28;20487;-75
2023/07/20 07:25:59;;;;;;;1.05;0.68;;;22.60;62.50;;;;;;6295342;28;20535;-76
2023/07/20 07:28:59;;;;;;;1.00;0.80;;;22.60;62.60;;;;;;6295058;28;20030;-69
2023/07/20 07:32:01;;;;;;;1.10;0.70;;;22.60;61.80;;;;;;6294004;28;20648;-69
2023/07/20 07:35:02;;;;;;;0.75;0.50;;;22.60;62.50;;;;;;6295176;28;20036;-69
2023/07/20 07:38:03;;;;;;;1.42;0.60;;;22.60;62.60;;;;;;6294200;28;20465;-68
2023/07/20 07:41:03;;;;;;;1.20;0.60;;;22.60;62.70;;;;;;6295573;28;20033;-68
2023/07/20 07:44:05;;;;;;;0.93;0.60;;;22.60;62.70;;;;;;6295693;28;20063;-69
2023/07/20 07:47:06;;;;;;;1.73;0.70;;;22.60;62.50;;;;;;6295171;28;20044;-68
2023/07/20 07:50:07;;;;;;;1.45;0.50;;;22.60;62.20;;;;;;6298104;28;20046;-67
2023/07/20 07:53:09;;;;;;;1.40;0.80;;;22.60;62.50;;;;;;6300130;28;20028;-68
2023/07/20 07:56:10;;;;;;;1.00;0.80;;;22.60;62.50;;;;;;6300578;28;20031;-68
2023/07/20 07:59:11;;;;;;;1.00;0.80;;;22.50;62.40;;;;;;6300123;28;20458;-67
2023/07/20 08:02:12;;;;;;;1.83;0.80;;;22.50;62.30;;;;;;6300292;28;20449;-68
2023/07/20 08:05:12;;;;;;;1.67;0.80;;;22.50;62.30;;;;;;6300128;28;20040;-69
2023/07/20 08:08:13;;;;;;;1.40;0.70;;;22.50;62.10;;;;;;6299851;28;20085;-69
2023/07/20 08:11:14;;;;;;;1.25;0.70;;;22.50;62.20;;;;;;6298690;28;20028;-67
2023/07/20 08:14:15;;;;;;;1.83;0.70;;;22.50;62.00;;;;;;6300063;28;20485;-69
2023/07/20 08:17:16;;;;;;;1.17;0.70;;;22.50;61.70;;;;;;6299962;28;20481;-68
2023/07/20 08:20:17;;;;;;;0.88;0.60;;;22.50;62.00;;;;;;6300288;28;20020;-67
2023/07/20 08:23:18;;;;;;;2.28;0.70;;;22.50;61.90;;;;;;6299639;28;20090;-68
2023/07/20 08:26:22;;;;;;;0.90;0.80;;;22.50;61.90;;;;;;6298468;28;20062;-68
2023/07/20 08:29:24;;;;;;;1.20;0.65;;;22.50;61.90;;;;;;6299131;28;20031;-72
2023/07/20 08:32:25;;;;;;;1.35;0.88;;;22.50;62.00;;;;;;6298772;28;20048;-67
2023/07/20 08:35:26;;;;;;;1.27;0.60;;;22.50;61.90;;;;;;6298194;28;20027;-67
2023/07/20 08:38:27;;;;;;;0.65;0.50;;;22.50;62.00;;;;;;6299557;28;20013;-67
2023/07/20 08:41:28;;;;;;;3.70;0.60;;;22.50;61.80;;;;;;6299205;28;20029;-67
2023/07/20 08:44:29;;;;;;;1.02;0.80;;;22.50;62.10;;;;;;6298869;28;20020;-69
2023/07/20 08:47:30;;;;;;;1.58;0.70;;;22.50;62.00;;;;;;6299014;28;20027;-69
2023/07/20 08:50:32;;;;;;;1.90;0.68;;;22.50;62.20;;;;;;6292124;28;20043;-67
2023/07/20 08:53:33;;;;;;;1.35;0.80;;;22.50;62.00;;;;;;6297291;28;20400;-67
2023/07/20 08:56:34;;;;;;;1.05;0.60;;;22.50;62.00;;;;;;6298363;28;20090;-67
2023/07/20 08:59:37;;;;;;;1.00;0.60;;;22.50;62.00;;;;;;6298532;28;20473;-67
2023/07/20 09:02:42;;;;;;;0.90;0.77;;;22.50;61.80;;;;;;6297817;28;20028;-67
2023/07/20 09:05:44;;;;;;;1.48;0.65;;;22.50;61.80;;;;;;6298690;28;20040;-66
2023/07/20 09:08:44;;;;;;;0.90;0.60;;;22.50;61.90;;;;;;6297119;28;20382;-67
2023/07/20 09:11:51;;;;;;;0.70;0.70;;;22.50;61.60;;;;;;6298241;28;20021;-67
2023/07/20 09:14:51;;;;;;;1.45;0.77;;;22.50;61.60;;;;;;6300619;28;20424;-67
2023/07/20 09:17:54;;;;;;;1.15;0.60;;;22.50;61.50;;;;;;6323569;28;20105;-68
2023/07/20 09:21:01;;;;;;;0.68;0.60;;;22.50;61.80;;;;;;6302317;28;20070;-67
2023/07/20 09:24:02;;;;;;;0.70;0.57;;;22.50;61.60;;;;;;6297291;28;20024;-68
2023/07/20 09:27:03;;;;;;;0.63;0.60;;;22.50;61.40;;;;;;6298026;28;20028;-66
2023/07/20 09:30:09;;;;;;;0.82;0.60;;;22.50;61.70;;;;;;6298222;28;20103;-66
2023/07/20 09:33:19;;;;;;;1.35;0.70;;;22.50;61.60;;;;;;6297862;28;20041;-66
2023/07/20 09:36:20;;;;;;;0.70;0.50;;;22.50;61.80;;;;;;6293123;28;20653;-66
2023/07/20 09:39:21;;;;;;;0.77;0.63;;;22.50;61.80;;;;;;6288880;28;20074;-67
2023/07/20 09:42:24;;;;;;;0.63;0.50;;;22.50;61.80;;;;;;6293746;28;20536;-66
2023/07/20 09:45:30;;;;;;;1.10;0.70;;;22.50;61.90;;;;;;6297380;28;20017;-66
2023/07/20 09:48:31;;;;;;;0.70;0.70;;;22.50;61.80;;;;;;6297465;28;20378;-66
2023/07/20 09:51:33;;;;;;;0.90;0.70;;;22.50;61.80;;;;;;6297480;28;20040;-67
2023/07/20 09:54:34;;;;;;;0.63;0.55;;;22.50;61.70;;;;;;6297306;28;20021;-67
2023/07/20 09:57:35;;;;;;;1.73;0.75;;;22.50;61.50;;;;;;6271530;28;20437;-67
2023/07/20 10:00:38;;;;;;;1.10;0.70;;;22.50;61.60;;;;;;6282492;28;20040;-68
2023/07/20 10:03:40;;;;;;;1.45;0.68;;;22.50;61.60;;;;;;6297484;28;20024;-67
2023/07/20 10:06:45;;;;;;;0.88;0.60;;;22.50;61.60;;;;;;6297260;28;20027;-67
2023/07/20 10:09:48;;;;;;;1.42;0.52;;;22.50;61.50;;;;;;6296012;28;20032;-68
2023/07/20 10:12:50;;;;;;;2.17;0.88;;;22.50;61.50;;;;;;6295703;28;20032;-67
2023/07/20 10:15:55;;;;;;;0.68;0.55;;;22.50;61.50;;;;;;6295289;28;20027;-68
2023/07/20 10:19:01;;;;;;;;;;;22.50;61.50;;;;;;6297596;28;20447;-67
2023/07/20 10:22:13;;;;;;;0.85;0.52;;;22.50;62.30;;;;;;6296782;28;19909;-67
2023/07/20 10:25:15;;;;;;;1.05;0.52;;;22.50;61.40;;;;;;6296616;28;20043;-67
2023/07/20 10:28:16;;;;;;;0.60;0.60;;;22.50;61.30;;;;;;6296865;28;20028;-68
2023/07/20 10:31:17;;;;;;;1.33;0.50;;;22.50;61.10;;;;;;6295517;28;20078;-67
2023/07/20 10:34:18;;;;;;;1.27;0.60;;;22.50;61.10;;;;;;6295777;28;20085;-68
2023/07/20 10:37:49;;;;;;;0.60;0.43;;;22.50;61.20;;;;;;6295634;28;20477;-67
2023/07/20 10:40:56;;;;;;;0.60;0.50;;;22.50;61.30;;;;;;6296019;28;20024;-69
2023/07/20 10:44:05;;;;;;;0.95;0.50;;;22.50;61.40;;;;;;6293733;28;20063;-69
2023/07/20 10:47:12;;;;;;;1.65;0.60;;;22.50;61.40;;;;;;6293990;28;20025;-69
2023/07/20 10:50:13;;;;;;;0.73;0.60;;;22.50;61.40;;;;;;6293029;28;20029;-69
2023/07/20 10:53:16;;;;;;;0.75;0.47;;;22.50;61.50;;;;;;6292881;28;20024;-68
2023/07/20 10:56:22;;;;;;;1.00;0.60;;;22.50;61.40;;;;;;6294507;28;20077;-68
2023/07/20 10:59:35;;;;;;;1.05;0.65;;;22.50;61.40;;;;;;6294472;28;20860;-68
2023/07/20 11:02:49;;;;;;;0.60;0.60;;;22.50;61.60;;;;;;6294231;28;20016;-68
2023/07/20 11:05:50;;;;;;;0.57;0.52;;;22.50;61.50;;;;;;6286209;28;20021;-68
2023/07/20 11:09:14;;;;;;;0.43;0.43;;;22.50;61.40;;;;;;6294303;28;20498;-68
2023/07/20 11:12:17;;;;;;;2.22;0.50;;;22.50;61.60;;;;;;6292843;28;20067;-68
2023/07/20 11:15:18;;;;;;;0.70;0.55;;;22.50;61.50;;;;;;6294094;28;20052;-68
2023/07/20 11:18:20;;;;;;;1.15;0.73;;;22.50;61.60;;;;;;6292179;28;20042;-68
2023/07/20 11:21:20;;;;;;;0.80;0.50;;;22.50;61.50;;;;;;6294352;28;20021;-68
2023/07/20 11:24:22;;;;;;;1.45;0.70;;;22.50;61.50;;;;;;6293685;28;20074;-68
2023/07/20 11:27:22;;;;;;;1.90;0.75;;;22.50;61.50;;;;;;6294043;28;20107;-68
2023/07/20 11:30:23;;;;;;;0.68;0.50;;;22.50;61.50;;;;;;6293990;28;20040;-68
2023/07/20 11:33:24;;;;;;;1.60;0.70;;;22.50;61.60;;;;;;6283291;28;20150;-68
2023/07/20 11:36:26;;;;;;;0.60;0.50;;;22.50;61.50;;;;;;6293449;28;20047;-68
2023/07/20 11:39:28;;;;;;;0.95;0.50;;;22.50;61.50;;;;;;6294267;28;20017;-68
2023/07/20 11:42:29;;;;;;;1.75;0.45;;;22.50;61.50;;;;;;6292303;28;20055;-67
2023/07/20 11:45:32;;;;;;;1.13;0.50;;;22.50;61.50;;;;;;6294426;28;20024;-67
2023/07/20 11:48:33;;;;;;;0.70;0.60;;;22.50;61.60;;;;;;6292281;28;20042;-67
2023/07/20 11:51:35;;;;;;;0.60;0.45;;;22.50;61.50;;;;;;6293789;28;20032;-68
2023/07/20 11:54:38;;;;;;;3.92;0.57;;;22.50;61.60;;;;;;6285520;28;20036;-68
2023/07/20 11:57:38;;;;;;;0.60;0.52;;;22.50;61.60;;;;;;6282207;28;20052;-68
2023/07/20 12:00:43;;;;;;;0.65;0.50;;;22.50;61.50;;;;;;6274638;28;20013;-67
2023/07/20 12:03:44;;;;;;;0.77;0.50;;;22.50;61.50;;;;;;6291113;28;20074;-68
2023/07/20 12:06:46;;;;;;;0.50;0.50;;;22.50;61.50;;;;;;6293672;28;20374;-68
2023/07/20 12:10:10;;;;;;;0.90;0.40;;;22.50;61.50;;;;;;6282714;28;20509;-68
2023/07/20 12:13:13;;;;;;;0.60;0.50;;;22.50;61.50;;;;;;6291602;28;20028;-68
2023/07/20 12:16:16;;;;;;;0.68;0.50;;;22.50;61.50;;;;;;6292944;28;20606;-68
2023/07/20 12:19:17;;;;;;;1.23;0.40;;;22.50;61.50;;;;;;6292431;28;20036;-68
2023/07/20 12:22:18;;;;;;;1.10;0.50;;;22.50;61.50;;;;;;6291908;28;20021;-68
2023/07/20 12:25:19;;;;;;;0.55;0.40;;;22.50;61.50;;;;;;6293498;28;20499;-68
2023/07/20 12:28:20;;;;;;;1.40;0.40;;;22.50;61.50;;;;;;6290309;28;20043;-66
2023/07/20 12:31:23;;;;;;;0.30;0.30;;;22.40;61.40;;;;;;6292749;28;20406;-68
2023/07/20 12:34:23;;;;;;;1.48;0.32;;;22.50;61.40;;;;;;6291522;28;20049;-68
2023/07/20 12:37:24;;;;;;;0.55;0.47;;;22.50;61.40;;;;;;6288218;28;20051;-69
2023/07/20 12:40:25;;;;;;;1.25;0.60;;;22.50;61.50;;;;;;6295207;28;20029;-68
2023/07/20 12:43:26;;;;;;;0.93;0.50;;;22.50;61.50;;;;;;6296499;28;20032;-67
2023/07/20 12:46:29;;;;;;;0.40;0.40;;;22.50;61.60;;;;;;6297148;28;20093;-68
2023/07/20 12:49:29;;;;;;;0.60;0.50;;;22.50;61.60;;;;;;6296332;28;20024;-68
2023/07/20 12:52:31;;;;;;;0.50;0.43;;;22.50;61.50;;;;;;6296968;28;20032;-68
2023/07/20 12:55:32;;;;;;;1.00;0.45;;;22.50;61.40;;;;;;6292973;28;20025;-68
2023/07/20 12:58:33;;;;;;;1.60;0.60;;;22.50;61.50;;;;;;6296379;28;20041;-67
2023/07/20 13:01:34;;;;;;;1.48;0.50;;;22.50;61.40;;;;;;6296406;28;20047;-68
2023/07/20 13:04:34;;;;;;;0.28;0.28;;;22.50;61.30;;;;;;6295870;28;20515;-68
2023/07/20 13:07:37;;;;;;;0.30;0.30;;;22.50;61.40;;;;;;6296688;28;20020;-68
2023/07/20 13:10:38;;;;;;;1.25;0.40;;;22.50;61.10;;;;;;6287244;28;20028;-67
2023/07/20 13:13:39;;;;;;;0.40;0.40;;;22.40;61.10;;;;;;6288976;28;20031;-67
2023/07/20 13:16:40;;;;;;;0.75;0.57;;;22.50;61.20;;;;;;6293599;28;20029;-67
2023/07/20 13:19:40;;;;;;;0.90;0.43;;;22.50;61.20;;;;;;6296081;28;20777;-68
2023/07/20 13:22:41;;;;;;;0.50;0.30;;;22.50;61.10;;;;;;6296283;28;20028;-68
2023/07/20 13:25:42;;;;;;;0.50;0.45;;;22.50;61.20;;;;;;6294424;28;20024;-68
2023/07/20 13:28:43;;;;;;;0.50;0.40;;;22.50;61.20;;;;;;6294750;28;20032;-68
2023/07/20 13:31:44;;;;;;;0.40;0.40;;;22.50;61.20;;;;;;6296241;28;20374;-68
2023/07/20 13:34:45;;;;;;;0.80;0.50;;;22.40;61.20;;;;;;6298562;28;20453;-68
2023/07/20 13:37:45;;;;;;;0.40;0.30;;;22.50;61.30;;;;;;6295774;28;20021;-68
2023/07/20 13:40:46;;;;;;;0.52;0.45;;;22.50;61.30;;;;;;6293831;28;20024;-68
2023/07/20 13:43:47;;;;;;;0.50;0.50;;;22.50;61.40;;;;;;6295124;28;20056;-68
2023/07/20 13:46:49;;;;;;;1.13;0.60;;;22.50;61.40;;;;;;6295666;28;20393;-68
2023/07/20 13:49:49;;;;;;;1.30;0.70;;;22.50;61.40;;;;;;6295406;28;20591;-67
2023/07/20 13:52:50;;;;;;;0.85;0.50;;;22.50;61.30;;;;;;6308249;28;20024;-67
2023/07/20 13:55:52;;;;;;;0.77;0.50;;;22.50;61.40;;;;;;6294385;28;20017;-66
2023/07/20 13:58:53;;;;;;;0.60;0.60;;;22.50;61.40;;;;;;6270776;28;20029;-67
2023/07/20 14:01:54;;;;;;;0.70;0.50;;;22.50;61.40;;;;;;6295025;28;20031;-67
2023/07/20 14:04:55;;;;;;;0.75;0.52;;;22.50;61.30;;;;;;6294343;28;20619;-67
2023/07/20 14:07:56;;;;;;;0.85;0.32;;;22.50;61.40;;;;;;6296098;28;20496;-70
2023/07/20 14:10:57;;;;;;;0.52;0.38;;;22.50;61.40;;;;;;6294882;28;20052;-70
2023/07/20 14:13:58;;;;;;;0.77;0.50;;;22.50;61.40;;;;;;6295750;28;20481;-70
2023/07/20 14:16:59;;;;;;;0.35;0.30;;;22.50;61.40;;;;;;6296540;28;20343;-70
2023/07/20 14:19:59;;;;;;;0.70;0.50;;;22.50;61.40;;;;;;6295398;28;20025;-70
2023/07/20 14:23:00;;;;;;;0.70;0.50;;;22.40;61.30;;;;;;6295204;28;20083;-70
2023/07/20 14:26:02;;;;;;;0.43;0.43;;;22.40;61.30;;;;;;6295815;28;20427;-70
2023/07/20 14:29:03;;;;;;;1.90;0.65;;;22.50;61.50;;;;;;6294893;28;20032;-70
2023/07/20 14:32:06;;;;;;;0.73;0.45;;;22.50;61.50;;;;;;6296153;28;20024;-70
2023/07/20 14:35:07;;;;;;;0.95;0.40;;;22.50;61.50;;;;;;6295470;28;20028;-70
2023/07/20 14:38:08;;;;;;;0.90;0.60;;;22.40;61.40;;;;;;6295889;28;20111;-70
2023/07/20 14:41:08;;;;;;;0.75;0.50;;;22.50;61.50;;;;;;6294543;28;20438;-70
2023/07/20 14:44:10;;;;;;;0.65;0.60;;;22.50;61.60;;;;;;6295797;28;20398;-70
2023/07/20 14:47:10;;;;;;;0.63;0.50;;;22.50;61.60;;;;;;6295867;28;20028;-70
2023/07/20 14:50:11;;;;;;;0.75;0.40;;;22.50;61.60;;;;;;6296042;28;20074;-70
2023/07/20 14:53:13;;;;;;;0.40;0.40;;;22.40;61.60;;;;;;6295570;28;20044;-70
2023/07/20 14:56:14;;;;;;;0.60;0.40;;;22.40;61.60;;;;;;6293605;28;20056;-70
2023/07/20 14:59:14;;;;;;;0.43;0.40;;;22.40;61.60;;;;;;6293580;28;20020;-70
2023/07/20 15:02:15;;;;;;;0.40;0.40;;;22.40;61.60;;;;;;6295551;28;20021;-70
2023/07/20 15:05:23;;;;;;;0.40;0.40;;;22.50;61.70;;;;;;6295099;28;20362;-70
2023/07/20 15:08:24;;;;;;;0.40;0.40;;;22.40;61.70;;;;;;6295524;28;20086;-70
2023/07/20 15:11:25;;;;;;;0.95;0.50;;;22.50;61.80;;;;;;6295128;28;20493;-70
2023/07/20 15:14:25;;;;;;;0.75;0.40;;;22.50;61.80;;;;;;6293579;28;20119;-70
2023/07/20 15:17:26;;;;;;;0.82;0.30;;;22.50;61.90;;;;;;6295143;28;20104;-70
2023/07/20 15:20:27;;;;;;;0.70;0.60;;;22.50;61.90;;;;;;6295387;28;20505;-70
2023/07/20 15:23:28;;;;;;;0.40;0.38;;;22.50;61.90;;;;;;6295099;28;20497;-70
2023/07/20 15:26:28;;;;;;;0.57;0.30;;;22.50;61.90;;;;;;6294909;28;20074;-70
2023/07/20 15:29:29;;;;;;;0.65;0.30;;;22.50;61.90;;;;;;6295265;28;20021;-70
2023/07/20 15:32:29;;;;;;;0.50;0.50;;;22.50;61.90;;;;;;6294999;28;20045;-70
2023/07/20 15:35:30;;;;;;;0.47;0.32;;;22.40;61.80;;;;;;6294394;28;20505;-70
2023/07/20 15:38:32;;;;;;;0.68;0.45;;;22.50;61.90;;;;;;6295157;28;20036;-69
2023/07/20 15:41:32;;;;;;;0.38;0.30;;;22.50;61.90;;;;;;6294993;28;20100;-69
2023/07/20 15:44:33;;;;;;;0.40;0.40;;;22.50;62.00;;;;;;6294639;28;20020;-70
2023/07/20 15:47:34;;;;;;;0.43;0.40;;;22.50;62.00;;;;;;6293404;28;20448;-70